Nearby METAR Reports

 

EGSS - Stansted Airport, United Kingdom
Distance from station: NW 15mi, 24km
Updated: 23/01/2022 17:20
Overcast
Overcast
 Wind from S
Wind: S 6 mph , 9 km/h
Temperature: 5°C
Wind Chill: 3°C
Dew Point: 1°C
Humidity: 76%
Barometer: 1033 hPa
Clouds: Overcast
Visibility: 6 miles , 10 km
Cloud details: Overcast 549 m
2022/01/23 17:20 EGSS 231720Z AUTO 18005KT 150V230 9999 OVC018 05/01 Q1033
EGMC - Southend-On-Sea, United Kingdom
Distance from station: SE 15mi, 25km
Updated: 23/01/2022 17:20
Mostly cloudy
Mostly cloudy
 Wind from ESE
Wind: ESE 3 mph , 6 km/h
Temperature: 5°C
Dew Point: 2°C
Humidity: 81%
Barometer: 1034 hPa
Clouds: Mostly cloudy
Visibility: 6 miles , 10 km
Cloud details: Mostly cloudy 762 m
2022/01/23 17:20 EGMC 231720Z 11003KT 9999 BKN025 05/02 Q1034
 
EGLC - London City Airp, United Kingdom
Distance from station: SW 24mi, 39km
Updated: 23/01/2022 17:20
Overcast
Overcast
 Wind from SSE
Wind: SSE 5 mph , 7 km/h
Temperature: 6°C
Wind Chill: 4°C
Dew Point: 1°C
Humidity: 71%
Barometer: 1034 hPa
Clouds: Overcast
Visibility: 6 miles , 10 km
Cloud details: Overcast 671 m
2022/01/23 17:20 EGLC 231720Z AUTO 16004KT 120V200 9999 OVC022 06/01 Q1034
EGUW - Wattisham Raf, United Kingdom
Distance from station: NE 34mi, 54km
Updated: 23/01/2022 16:50
Overcast
Overcast
 Wind from S
Wind: S 5 mph , 7 km/h
Temperature: 5°C
Wind Chill: 3°C
Dew Point: 1°C
Humidity: 76%
Barometer: 1033 hPa
Clouds: Overcast
Visibility: 6 miles , 10 km
Cloud details: Overcast 610 m
2022/01/23 16:50 EGUW 231650Z AUTO 18004KT 9999 OVC020/// 05/01 Q1033
 
EGGW - Luton Airport, United Kingdom
Distance from station: WNW 37mi, 59km
Updated: 23/01/2022 17:20
Overcast
Overcast
 Wind from S
Wind: S 5 mph , 7 km/h
Temperature: 5°C
Wind Chill: 3°C
Dew Point: 2°C
Humidity: 81%
Barometer: 1033 hPa
Clouds: Overcast
Visibility: 6 miles , 10 km
Cloud details: Overcast 457 m
2022/01/23 17:20 EGGW 231720Z AUTO 17004KT 130V210 9999 OVC015 05/02 Q1033
EGWU - Northolt Raf, United Kingdom
Distance from station: WSW 40mi, 64km
Updated: 23/01/2022 17:20
Overcast
Overcast
 Wind from SSE
Wind: SSE 5 mph , 7 km/h
Temperature: 6°C
Wind Chill: 4°C
Dew Point: 2°C
Humidity: 76%
Barometer: 1033 hPa
Clouds: Overcast
Visibility: 6 miles , 10 km
Cloud details: Overcast 579 m
2022/01/23 17:20 EGWU 231720Z 15004KT 9999 OVC019 06/02 Q1033 NOSIG RMK WHT WHT